sensor_id;sensor_type;location;lat;lon;timestamp;P1;durP1;ratioP1;P2;durP2;ratioP2
11539;SDS011;5826;54.756;9.192;2023-10-13T00:02:02;4.00;;;2.10;;
11539;SDS011;5826;54.756;9.192;2023-10-13T00:04:30;5.60;;;2.20;;
11539;SDS011;5826;54.756;9.192;2023-10-13T00:06:57;7.00;;;2.15;;
11539;SDS011;5826;54.756;9.192;2023-10-13T00:09:24;6.25;;;2.00;;
11539;SDS011;5826;54.756;9.192;2023-10-13T00:12:03;3.53;;;1.92;;
11539;SDS011;5826;54.756;9.192;2023-10-13T00:14:34;2.92;;;1.60;;
11539;SDS011;5826;54.756;9.192;2023-10-13T00:17:00;5.60;;;1.75;;
11539;SDS011;5826;54.756;9.192;2023-10-13T00:19:32;5.45;;;1.80;;
11539;SDS011;5826;54.756;9.192;2023-10-13T00:22:12;5.18;;;2.40;;
11539;SDS011;5826;54.756;9.192;2023-10-13T00:24:41;5.15;;;1.80;;
11539;SDS011;5826;54.756;9.192;2023-10-13T00:27:20;5.22;;;2.05;;
11539;SDS011;5826;54.756;9.192;2023-10-13T00:32:42;3.38;;;1.60;;
11539;SDS011;5826;54.756;9.192;2023-10-13T00:35:10;4.85;;;1.70;;
11539;SDS011;5826;54.756;9.192;2023-10-13T00:37:38;4.20;;;2.00;;
11539;SDS011;5826;54.756;9.192;2023-10-13T00:40:09;5.28;;;1.80;;
11539;SDS011;5826;54.756;9.192;2023-10-13T00:42:53;4.68;;;1.80;;
11539;SDS011;5826;54.756;9.192;2023-10-13T00:45:18;5.13;;;1.92;;
11539;SDS011;5826;54.756;9.192;2023-10-13T00:47:44;7.05;;;2.20;;
11539;SDS011;5826;54.756;9.192;2023-10-13T00:50:21;6.70;;;2.08;;
11539;SDS011;5826;54.756;9.192;2023-10-13T00:52:49;4.63;;;1.90;;
11539;SDS011;5826;54.756;9.192;2023-10-13T00:55:18;4.72;;;1.40;;
11539;SDS011;5826;54.756;9.192;2023-10-13T00:57:50;4.32;;;1.70;;
11539;SDS011;5826;54.756;9.192;2023-10-13T01:00:19;6.00;;;2.17;;
11539;SDS011;5826;54.756;9.192;2023-10-13T01:02:49;3.53;;;1.67;;
11539;SDS011;5826;54.756;9.192;2023-10-13T01:05:21;6.00;;;2.00;;
11539;SDS011;5826;54.756;9.192;2023-10-13T01:07:48;4.90;;;1.67;;
11539;SDS011;5826;54.756;9.192;2023-10-13T01:10:17;6.47;;;1.98;;
11539;SDS011;5826;54.756;9.192;2023-10-13T01:12:44;5.28;;;2.20;;
11539;SDS011;5826;54.756;9.192;2023-10-13T01:15:10;6.38;;;2.10;;
11539;SDS011;5826;54.756;9.192;2023-10-13T01:17:38;6.15;;;2.00;;
11539;SDS011;5826;54.756;9.192;2023-10-13T01:20:04;5.28;;;1.70;;
11539;SDS011;5826;54.756;9.192;2023-10-13T01:22:30;6.38;;;1.98;;
11539;SDS011;5826;54.756;9.192;2023-10-13T01:24:57;5.97;;;1.83;;
11539;SDS011;5826;54.756;9.192;2023-10-13T01:27:30;5.03;;;2.00;;
11539;SDS011;5826;54.756;9.192;2023-10-13T01:29:55;5.30;;;1.92;;
11539;SDS011;5826;54.756;9.192;2023-10-13T01:32:24;5.43;;;1.83;;
11539;SDS011;5826;54.756;9.192;2023-10-13T01:34:49;7.13;;;1.77;;
11539;SDS011;5826;54.756;9.192;2023-10-13T01:37:20;3.83;;;1.65;;
11539;SDS011;5826;54.756;9.192;2023-10-13T01:39:46;7.50;;;1.95;;
11539;SDS011;5826;54.756;9.192;2023-10-13T01:42:14;6.50;;;1.77;;
11539;SDS011;5826;54.756;9.192;2023-10-13T01:44:47;7.72;;;2.05;;
11539;SDS011;5826;54.756;9.192;2023-10-13T01:47:13;6.63;;;1.98;;
11539;SDS011;5826;54.756;9.192;2023-10-13T01:49:38;4.57;;;1.70;;
11539;SDS011;5826;54.756;9.192;2023-10-13T01:52:11;4.65;;;1.80;;
11539;SDS011;5826;54.756;9.192;2023-10-13T01:54:37;4.45;;;1.42;;
11539;SDS011;5826;54.756;9.192;2023-10-13T01:57:09;6.18;;;1.70;;
11539;SDS011;5826;54.756;9.192;2023-10-13T01:59:38;4.40;;;1.92;;
11539;SDS011;5826;54.756;9.192;2023-10-13T02:02:12;4.97;;;1.80;;
11539;SDS011;5826;54.756;9.192;2023-10-13T02:04:40;6.57;;;1.60;;
11539;SDS011;5826;54.756;9.192;2023-10-13T02:07:07;6.47;;;2.00;;
11539;SDS011;5826;54.756;9.192;2023-10-13T02:09:33;5.30;;;1.50;;
11539;SDS011;5826;54.756;9.192;2023-10-13T02:12:02;5.07;;;1.15;;
11539;SDS011;5826;54.756;9.192;2023-10-13T02:14:27;4.97;;;1.58;;
11539;SDS011;5826;54.756;9.192;2023-10-13T02:16:53;3.40;;;1.30;;
11539;SDS011;5826;54.756;9.192;2023-10-13T02:19:37;2.83;;;1.23;;
11539;SDS011;5826;54.756;9.192;2023-10-13T02:22:05;2.63;;;1.20;;
11539;SDS011;5826;54.756;9.192;2023-10-13T02:24:34;3.08;;;1.20;;
11539;SDS011;5826;54.756;9.192;2023-10-13T02:27:04;4.93;;;1.25;;
11539;SDS011;5826;54.756;9.192;2023-10-13T02:29:41;4.35;;;1.20;;
11539;SDS011;5826;54.756;9.192;2023-10-13T02:32:10;3.63;;;1.38;;
11539;SDS011;5826;54.756;9.192;2023-10-13T02:34:45;2.80;;;1.20;;
11539;SDS011;5826;54.756;9.192;2023-10-13T02:37:11;5.00;;;1.58;;
11539;SDS011;5826;54.756;9.192;2023-10-13T02:39:38;3.38;;;1.30;;
11539;SDS011;5826;54.756;9.192;2023-10-13T02:42:09;5.97;;;1.50;;
11539;SDS011;5826;54.756;9.192;2023-10-13T02:44:48;3.45;;;1.30;;
11539;SDS011;5826;54.756;9.192;2023-10-13T02:47:17;4.03;;;1.30;;
11539;SDS011;5826;54.756;9.192;2023-10-13T02:49:45;2.83;;;1.10;;
11539;SDS011;5826;54.756;9.192;2023-10-13T02:52:12;6.82;;;1.58;;
11539;SDS011;5826;54.756;9.192;2023-10-13T02:54:39;5.07;;;1.75;;
11539;SDS011;5826;54.756;9.192;2023-10-13T02:57:07;3.60;;;1.42;;
11539;SDS011;5826;54.756;9.192;2023-10-13T02:59:33;4.80;;;1.58;;
11539;SDS011;5826;54.756;9.192;2023-10-13T03:02:05;5.50;;;1.27;;
11539;SDS011;5826;54.756;9.192;2023-10-13T03:04:42;4.85;;;1.27;;
11539;SDS011;5826;54.756;9.192;2023-10-13T03:07:14;4.53;;;1.50;;
11539;SDS011;5826;54.756;9.192;2023-10-13T03:09:50;4.43;;;1.48;;
11539;SDS011;5826;54.756;9.192;2023-10-13T03:12:16;2.50;;;1.25;;
11539;SDS011;5826;54.756;9.192;2023-10-13T03:14:42;3.78;;;1.15;;
11539;SDS011;5826;54.756;9.192;2023-10-13T03:17:12;5.07;;;1.80;;
11539;SDS011;5826;54.756;9.192;2023-10-13T03:19:47;6.38;;;1.58;;
11539;SDS011;5826;54.756;9.192;2023-10-13T03:22:16;4.72;;;1.60;;
11539;SDS011;5826;54.756;9.192;2023-10-13T03:24:54;2.97;;;1.30;;
11539;SDS011;5826;54.756;9.192;2023-10-13T03:27:24;3.80;;;1.33;;
11539;SDS011;5826;54.756;9.192;2023-10-13T03:30:04;3.67;;;1.63;;
11539;SDS011;5826;54.756;9.192;2023-10-13T03:32:38;3.30;;;1.50;;
11539;SDS011;5826;54.756;9.192;2023-10-13T03:35:08;3.72;;;1.67;;
11539;SDS011;5826;54.756;9.192;2023-10-13T03:37:49;4.53;;;1.40;;
11539;SDS011;5826;54.756;9.192;2023-10-13T03:40:19;4.68;;;1.60;;
11539;SDS011;5826;54.756;9.192;2023-10-13T03:43:04;4.25;;;1.55;;
11539;SDS011;5826;54.756;9.192;2023-10-13T03:45:31;3.40;;;1.48;;
11539;SDS011;5826;54.756;9.192;2023-10-13T03:48:12;6.32;;;2.13;;
11539;SDS011;5826;54.756;9.192;2023-10-13T03:50:54;6.13;;;2.50;;
11539;SDS011;5826;54.756;9.192;2023-10-13T03:53:31;5.00;;;1.70;;
11539;SDS011;5826;54.756;9.192;2023-10-13T03:56:22;6.25;;;2.78;;
11539;SDS011;5826;54.756;9.192;2023-10-13T03:59:04;4.90;;;2.13;;
11539;SDS011;5826;54.756;9.192;2023-10-13T04:01:31;4.07;;;1.98;;
11539;SDS011;5826;54.756;9.192;2023-10-13T04:04:12;3.47;;;1.92;;
11539;SDS011;5826;54.756;9.192;2023-10-13T04:06:40;6.47;;;2.47;;
11539;SDS011;5826;54.756;9.192;2023-10-13T04:09:15;7.88;;;2.78;;
11539;SDS011;5826;54.756;9.192;2023-10-13T04:14:26;10.02;;;3.53;;
11539;SDS011;5826;54.756;9.192;2023-10-13T04:17:17;4.53;;;2.55;;
11539;SDS011;5826;54.756;9.192;2023-10-13T04:19:53;7.75;;;3.65;;
11539;SDS011;5826;54.756;9.192;2023-10-13T04:22:48;12.43;;;4.82;;
11539;SDS011;5826;54.756;9.192;2023-10-13T04:25:18;9.25;;;3.90;;
11539;SDS011;5826;54.756;9.192;2023-10-13T04:28:14;10.85;;;4.75;;
11539;SDS011;5826;54.756;9.192;2023-10-13T04:33:22;6.97;;;3.50;;
11539;SDS011;5826;54.756;9.192;2023-10-13T04:36:00;7.78;;;4.18;;
11539;SDS011;5826;54.756;9.192;2023-10-13T04:38:47;7.43;;;2.90;;
11539;SDS011;5826;54.756;9.192;2023-10-13T04:44:23;8.65;;;4.53;;
11539;SDS011;5826;54.756;9.192;2023-10-13T04:46:55;7.00;;;3.75;;
11539;SDS011;5826;54.756;9.192;2023-10-13T04:49:28;5.95;;;3.22;;
11539;SDS011;5826;54.756;9.192;2023-10-13T04:52:01;8.70;;;4.07;;
11539;SDS011;5826;54.756;9.192;2023-10-13T04:54:35;5.90;;;3.50;;
11539;SDS011;5826;54.756;9.192;2023-10-13T04:57:13;6.00;;;3.85;;
11539;SDS011;5826;54.756;9.192;2023-10-13T04:59:49;5.25;;;3.50;;
11539;SDS011;5826;54.756;9.192;2023-10-13T05:02:34;5.57;;;3.20;;
11539;SDS011;5826;54.756;9.192;2023-10-13T05:05:04;5.32;;;3.47;;
11539;SDS011;5826;54.756;9.192;2023-10-13T05:07:39;4.90;;;2.85;;
11539;SDS011;5826;54.756;9.192;2023-10-13T05:10:23;4.35;;;2.70;;
11539;SDS011;5826;54.756;9.192;2023-10-13T05:13:08;3.03;;;2.13;;
11539;SDS011;5826;54.756;9.192;2023-10-13T05:15:52;3.22;;;2.42;;
11539;SDS011;5826;54.756;9.192;2023-10-13T05:18:36;4.65;;;2.80;;
11539;SDS011;5826;54.756;9.192;2023-10-13T05:21:20;5.20;;;2.90;;
11539;SDS011;5826;54.756;9.192;2023-10-13T05:24:05;6.15;;;3.30;;
11539;SDS011;5826;54.756;9.192;2023-10-13T05:26:50;3.55;;;2.50;;
11539;SDS011;5826;54.756;9.192;2023-10-13T05:29:38;6.55;;;3.47;;
11539;SDS011;5826;54.756;9.192;2023-10-13T05:32:23;4.05;;;2.97;;
11539;SDS011;5826;54.756;9.192;2023-10-13T05:35:08;7.68;;;4.47;;
11539;SDS011;5826;54.756;9.192;2023-10-13T05:37:53;3.83;;;2.70;;
11539;SDS011;5826;54.756;9.192;2023-10-13T05:40:37;5.35;;;3.78;;
11539;SDS011;5826;54.756;9.192;2023-10-13T05:43:21;5.75;;;4.20;;
11539;SDS011;5826;54.756;9.192;2023-10-13T05:46:05;4.75;;;3.33;;
11539;SDS011;5826;54.756;9.192;2023-10-13T05:48:50;5.50;;;3.90;;
11539;SDS011;5826;54.756;9.192;2023-10-13T05:51:28;8.30;;;4.70;;
11539;SDS011;5826;54.756;9.192;2023-10-13T05:54:04;5.25;;;3.50;;
11539;SDS011;5826;54.756;9.192;2023-10-13T05:56:42;6.55;;;4.38;;
11539;SDS011;5826;54.756;9.192;2023-10-13T05:59:28;8.20;;;5.00;;
11539;SDS011;5826;54.756;9.192;2023-10-13T06:02:17;5.32;;;3.78;;
11539;SDS011;5826;54.756;9.192;2023-10-13T06:05:06;6.68;;;4.18;;
11539;SDS011;5826;54.756;9.192;2023-10-13T06:07:52;6.75;;;4.38;;
11539;SDS011;5826;54.756;9.192;2023-10-13T06:10:37;5.78;;;3.58;;
11539;SDS011;5826;54.756;9.192;2023-10-13T06:13:21;7.03;;;4.82;;
11539;SDS011;5826;54.756;9.192;2023-10-13T06:16:06;4.32;;;3.30;;
11539;SDS011;5826;54.756;9.192;2023-10-13T06:18:50;6.70;;;4.85;;
11539;SDS011;5826;54.756;9.192;2023-10-13T06:21:34;6.15;;;4.03;;
11539;SDS011;5826;54.756;9.192;2023-10-13T06:24:18;4.10;;;3.30;;
11539;SDS011;5826;54.756;9.192;2023-10-13T06:27:02;7.97;;;4.53;;
11539;SDS011;5826;54.756;9.192;2023-10-13T06:29:46;4.50;;;3.78;;
11539;SDS011;5826;54.756;9.192;2023-10-13T06:32:13;4.00;;;3.30;;
11539;SDS011;5826;54.756;9.192;2023-10-13T06:34:41;7.13;;;5.15;;
11539;SDS011;5826;54.756;9.192;2023-10-13T06:37:15;4.55;;;3.70;;
11539;SDS011;5826;54.756;9.192;2023-10-13T06:39:51;4.85;;;3.58;;
11539;SDS011;5826;54.756;9.192;2023-10-13T06:42:21;4.78;;;4.13;;
11539;SDS011;5826;54.756;9.192;2023-10-13T06:44:47;4.72;;;3.67;;
11539;SDS011;5826;54.756;9.192;2023-10-13T06:47:13;3.97;;;3.35;;
11539;SDS011;5826;54.756;9.192;2023-10-13T06:49:39;5.72;;;3.75;;
11539;SDS011;5826;54.756;9.192;2023-10-13T06:52:08;4.00;;;3.53;;
11539;SDS011;5826;54.756;9.192;2023-10-13T06:54:34;6.13;;;5.03;;
11539;SDS011;5826;54.756;9.192;2023-10-13T06:57:00;4.43;;;3.53;;
11539;SDS011;5826;54.756;9.192;2023-10-13T06:59:28;4.00;;;3.60;;
11539;SDS011;5826;54.756;9.192;2023-10-13T07:01:57;3.78;;;3.38;;
11539;SDS011;5826;54.756;9.192;2023-10-13T07:04:29;4.03;;;3.40;;
11539;SDS011;5826;54.756;9.192;2023-10-13T07:06:54;3.53;;;3.20;;
11539;SDS011;5826;54.756;9.192;2023-10-13T07:09:20;3.30;;;3.00;;
11539;SDS011;5826;54.756;9.192;2023-10-13T07:12:01;3.42;;;3.10;;
11539;SDS011;5826;54.756;9.192;2023-10-13T07:14:46;3.70;;;3.22;;
11539;SDS011;5826;54.756;9.192;2023-10-13T07:17:23;3.00;;;2.70;;
11539;SDS011;5826;54.756;9.192;2023-10-13T07:19:52;3.03;;;2.72;;
11539;SDS011;5826;54.756;9.192;2023-10-13T07:22:19;3.17;;;2.80;;
11539;SDS011;5826;54.756;9.192;2023-10-13T07:24:48;3.38;;;2.88;;
11539;SDS011;5826;54.756;9.192;2023-10-13T07:27:16;2.72;;;2.40;;
11539;SDS011;5826;54.756;9.192;2023-10-13T07:29:48;2.50;;;2.17;;
11539;SDS011;5826;54.756;9.192;2023-10-13T07:32:24;2.50;;;2.30;;
11539;SDS011;5826;54.756;9.192;2023-10-13T07:34:54;2.50;;;2.30;;
11539;SDS011;5826;54.756;9.192;2023-10-13T07:37:22;2.20;;;2.00;;
11539;SDS011;5826;54.756;9.192;2023-10-13T07:39:53;2.10;;;1.90;;
11539;SDS011;5826;54.756;9.192;2023-10-13T07:42:22;2.17;;;1.98;;
11539;SDS011;5826;54.756;9.192;2023-10-13T07:44:50;2.28;;;2.08;;
11539;SDS011;5826;54.756;9.192;2023-10-13T07:47:20;2.35;;;2.15;;
11539;SDS011;5826;54.756;9.192;2023-10-13T07:49:49;2.38;;;2.17;;
11539;SDS011;5826;54.756;9.192;2023-10-13T07:52:15;2.47;;;2.28;;
11539;SDS011;5826;54.756;9.192;2023-10-13T07:54:44;2.40;;;2.20;;
11539;SDS011;5826;54.756;9.192;2023-10-13T07:57:14;2.35;;;2.15;;
11539;SDS011;5826;54.756;9.192;2023-10-13T07:59:41;2.28;;;2.08;;
11539;SDS011;5826;54.756;9.192;2023-10-13T08:02:16;2.30;;;2.10;;
11539;SDS011;5826;54.756;9.192;2023-10-13T08:05:01;2.00;;;1.90;;
11539;SDS011;5826;54.756;9.192;2023-10-13T08:07:29;1.75;;;1.65;;
11539;SDS011;5826;54.756;9.192;2023-10-13T08:09:56;1.80;;;1.58;;
11539;SDS011;5826;54.756;9.192;2023-10-13T08:12:24;2.03;;;1.92;;
11539;SDS011;5826;54.756;9.192;2023-10-13T08:14:50;2.20;;;2.00;;
11539;SDS011;5826;54.756;9.192;2023-10-13T08:17:34;1.70;;;1.60;;
11539;SDS011;5826;54.756;9.192;2023-10-13T08:19:59;2.22;;;2.03;;
11539;SDS011;5826;54.756;9.192;2023-10-13T08:22:36;2.83;;;2.60;;
11539;SDS011;5826;54.756;9.192;2023-10-13T08:25:03;5.25;;;4.40;;
11539;SDS011;5826;54.756;9.192;2023-10-13T08:28:07;2.53;;;2.33;;
11539;SDS011;5826;54.756;9.192;2023-10-13T08:30:51;3.88;;;3.45;;
11539;SDS011;5826;54.756;9.192;2023-10-13T08:33:17;5.10;;;4.60;;
11539;SDS011;5826;54.756;9.192;2023-10-13T08:35:44;4.95;;;4.55;;
11539;SDS011;5826;54.756;9.192;2023-10-13T08:38:42;6.30;;;5.35;;
11539;SDS011;5826;54.756;9.192;2023-10-13T08:41:16;6.57;;;5.90;;
11539;SDS011;5826;54.756;9.192;2023-10-13T08:43:42;8.77;;;6.80;;
11539;SDS011;5826;54.756;9.192;2023-10-13T08:46:15;7.75;;;6.93;;
11539;SDS011;5826;54.756;9.192;2023-10-13T08:48:57;7.25;;;6.30;;
11539;SDS011;5826;54.756;9.192;2023-10-13T08:51:40;9.15;;;7.47;;
11539;SDS011;5826;54.756;9.192;2023-10-13T08:54:29;5.85;;;5.25;;
11539;SDS011;5826;54.756;9.192;2023-10-13T08:57:04;6.88;;;6.18;;
11539;SDS011;5826;54.756;9.192;2023-10-13T08:59:55;6.03;;;4.53;;
11539;SDS011;5826;54.756;9.192;2023-10-13T09:02:21;6.38;;;5.60;;
11539;SDS011;5826;54.756;9.192;2023-10-13T09:05:08;3.80;;;3.40;;
11539;SDS011;5826;54.756;9.192;2023-10-13T09:07:54;6.72;;;4.63;;
11539;SDS011;5826;54.756;9.192;2023-10-13T09:10:24;3.28;;;2.97;;
11539;SDS011;5826;54.756;9.192;2023-10-13T09:12:58;2.92;;;2.70;;
11539;SDS011;5826;54.756;9.192;2023-10-13T09:15:29;3.00;;;2.70;;
11539;SDS011;5826;54.756;9.192;2023-10-13T09:18:22;3.65;;;3.35;;
11539;SDS011;5826;54.756;9.192;2023-10-13T09:21:03;3.20;;;2.90;;
11539;SDS011;5826;54.756;9.192;2023-10-13T09:23:48;4.07;;;3.05;;
11539;SDS011;5826;54.756;9.192;2023-10-13T09:26:14;3.00;;;2.70;;
11539;SDS011;5826;54.756;9.192;2023-10-13T09:28:42;2.30;;;2.10;;
11539;SDS011;5826;54.756;9.192;2023-10-13T09:31:08;2.50;;;2.30;;
11539;SDS011;5826;54.756;9.192;2023-10-13T09:33:34;1.92;;;1.83;;
11539;SDS011;5826;54.756;9.192;2023-10-13T09:36:01;2.95;;;2.65;;
11539;SDS011;5826;54.756;9.192;2023-10-13T09:38:30;2.83;;;1.90;;
11539;SDS011;5826;54.756;9.192;2023-10-13T09:40:58;1.60;;;1.50;;
11539;SDS011;5826;54.756;9.192;2023-10-13T09:43:26;2.63;;;1.60;;
11539;SDS011;5826;54.756;9.192;2023-10-13T09:45:58;1.52;;;1.42;;
11539;SDS011;5826;54.756;9.192;2023-10-13T09:48:32;1.90;;;1.70;;
11539;SDS011;5826;54.756;9.192;2023-10-13T09:51:00;2.90;;;2.50;;
11539;SDS011;5826;54.756;9.192;2023-10-13T09:53:29;6.20;;;4.10;;
11539;SDS011;5826;54.756;9.192;2023-10-13T09:55:58;4.95;;;3.45;;
11539;SDS011;5826;54.756;9.192;2023-10-13T09:58:42;3.47;;;2.80;;
11539;SDS011;5826;54.756;9.192;2023-10-13T10:01:17;5.40;;;2.88;;
11539;SDS011;5826;54.756;9.192;2023-10-13T10:04:05;4.85;;;2.65;;
11539;SDS011;5826;54.756;9.192;2023-10-13T10:06:33;3.67;;;2.75;;
11539;SDS011;5826;54.756;9.192;2023-10-13T10:09:10;4.10;;;2.40;;
11539;SDS011;5826;54.756;9.192;2023-10-13T10:14:21;3.65;;;2.63;;
11539;SDS011;5826;54.756;9.192;2023-10-13T10:19:24;4.57;;;2.85;;
11539;SDS011;5826;54.756;9.192;2023-10-13T10:22:00;4.05;;;2.75;;
11539;SDS011;5826;54.756;9.192;2023-10-13T10:24:41;6.15;;;2.95;;
11539;SDS011;5826;54.756;9.192;2023-10-13T10:27:07;7.30;;;3.28;;
11539;SDS011;5826;54.756;9.192;2023-10-13T10:29:33;4.10;;;2.90;;
11539;SDS011;5826;54.756;9.192;2023-10-13T10:31:59;4.60;;;3.33;;
11539;SDS011;5826;54.756;9.192;2023-10-13T10:34:30;3.88;;;2.72;;
11539;SDS011;5826;54.756;9.192;2023-10-13T10:36:57;6.78;;;3.60;;
11539;SDS011;5826;54.756;9.192;2023-10-13T10:39:33;6.97;;;3.38;;
11539;SDS011;5826;54.756;9.192;2023-10-13T10:42:12;5.50;;;3.60;;
11539;SDS011;5826;54.756;9.192;2023-10-13T10:44:42;5.32;;;3.00;;
11539;SDS011;5826;54.756;9.192;2023-10-13T10:47:13;4.80;;;3.30;;
11539;SDS011;5826;54.756;9.192;2023-10-13T10:50:01;6.22;;;3.75;;
11539;SDS011;5826;54.756;9.192;2023-10-13T10:52:33;5.35;;;2.90;;
11539;SDS011;5826;54.756;9.192;2023-10-13T10:55:04;7.80;;;3.95;;
11539;SDS011;5826;54.756;9.192;2023-10-13T10:57:33;5.97;;;3.85;;
11539;SDS011;5826;54.756;9.192;2023-10-13T11:00:02;7.93;;;4.20;;
11539;SDS011;5826;54.756;9.192;2023-10-13T11:02:37;7.80;;;3.88;;
11539;SDS011;5826;54.756;9.192;2023-10-13T11:05:03;8.32;;;4.20;;
11539;SDS011;5826;54.756;9.192;2023-10-13T11:07:31;7.22;;;4.20;;
11539;SDS011;5826;54.756;9.192;2023-10-13T11:10:06;8.65;;;4.50;;
11539;SDS011;5826;54.756;9.192;2023-10-13T11:12:36;7.80;;;4.82;;
11539;SDS011;5826;54.756;9.192;2023-10-13T11:15:05;5.20;;;3.92;;
11539;SDS011;5826;54.756;9.192;2023-10-13T11:17:40;5.90;;;4.18;;
11539;SDS011;5826;54.756;9.192;2023-10-13T11:20:16;7.43;;;4.28;;
11539;SDS011;5826;54.756;9.192;2023-10-13T11:22:50;6.32;;;3.97;;
11539;SDS011;5826;54.756;9.192;2023-10-13T11:25:29;6.95;;;4.40;;
11539;SDS011;5826;54.756;9.192;2023-10-13T11:28:09;8.15;;;3.90;;
11539;SDS011;5826;54.756;9.192;2023-10-13T11:30:45;7.88;;;4.63;;
11539;SDS011;5826;54.756;9.192;2023-10-13T11:33:17;7.78;;;4.32;;
11539;SDS011;5826;54.756;9.192;2023-10-13T11:35:46;8.52;;;4.60;;
11539;SDS011;5826;54.756;9.192;2023-10-13T11:38:28;9.77;;;4.47;;
11539;SDS011;5826;54.756;9.192;2023-10-13T11:41:08;8.85;;;4.93;;
11539;SDS011;5826;54.756;9.192;2023-10-13T11:46:15;9.18;;;5.03;;
11539;SDS011;5826;54.756;9.192;2023-10-13T11:48:44;11.05;;;4.72;;
11539;SDS011;5826;54.756;9.192;2023-10-13T11:51:12;8.07;;;4.30;;
11539;SDS011;5826;54.756;9.192;2023-10-13T11:53:49;6.95;;;4.20;;
11539;SDS011;5826;54.756;9.192;2023-10-13T11:56:21;7.18;;;4.25;;
11539;SDS011;5826;54.756;9.192;2023-10-13T11:58:47;9.43;;;4.78;;
11539;SDS011;5826;54.756;9.192;2023-10-13T12:01:13;11.65;;;5.28;;
11539;SDS011;5826;54.756;9.192;2023-10-13T12:03:42;11.25;;;5.15;;
11539;SDS011;5826;54.756;9.192;2023-10-13T12:06:27;9.02;;;4.80;;
11539;SDS011;5826;54.756;9.192;2023-10-13T12:09:00;14.10;;;5.60;;
11539;SDS011;5826;54.756;9.192;2023-10-13T12:11:56;9.63;;;5.00;;
11539;SDS011;5826;54.756;9.192;2023-10-13T12:14:25;9.00;;;4.75;;
11539;SDS011;5826;54.756;9.192;2023-10-13T12:16:57;7.47;;;5.10;;
11539;SDS011;5826;54.756;9.192;2023-10-13T12:19:28;8.52;;;5.07;;
11539;SDS011;5826;54.756;9.192;2023-10-13T12:21:54;9.00;;;4.97;;
11539;SDS011;5826;54.756;9.192;2023-10-13T12:24:24;11.95;;;5.60;;
11539;SDS011;5826;54.756;9.192;2023-10-13T12:27:05;8.30;;;5.13;;
11539;SDS011;5826;54.756;9.192;2023-10-13T12:29:50;9.40;;;6.10;;
11539;SDS011;5826;54.756;9.192;2023-10-13T12:32:17;14.13;;;6.53;;
11539;SDS011;5826;54.756;9.192;2023-10-13T12:34:47;12.15;;;5.60;;
11539;SDS011;5826;54.756;9.192;2023-10-13T12:37:29;12.77;;;6.00;;
11539;SDS011;5826;54.756;9.192;2023-10-13T12:40:08;10.85;;;6.18;;
11539;SDS011;5826;54.756;9.192;2023-10-13T12:42:55;11.45;;;5.38;;
11539;SDS011;5826;54.756;9.192;2023-10-13T12:45:39;8.90;;;5.80;;
11539;SDS011;5826;54.756;9.192;2023-10-13T12:48:27;15.70;;;6.65;;
11539;SDS011;5826;54.756;9.192;2023-10-13T12:51:12;14.00;;;6.10;;
11539;SDS011;5826;54.756;9.192;2023-10-13T12:53:53;14.23;;;5.57;;
11539;SDS011;5826;54.756;9.192;2023-10-13T12:56:19;11.85;;;5.60;;
11539;SDS011;5826;54.756;9.192;2023-10-13T12:58:51;15.10;;;6.53;;
11539;SDS011;5826;54.756;9.192;2023-10-13T13:01:18;12.80;;;6.57;;
11539;SDS011;5826;54.756;9.192;2023-10-13T13:03:45;12.45;;;5.90;;
11539;SDS011;5826;54.756;9.192;2023-10-13T13:06:21;15.93;;;6.40;;
11539;SDS011;5826;54.756;9.192;2023-10-13T13:08:54;12.13;;;5.68;;
11539;SDS011;5826;54.756;9.192;2023-10-13T13:11:20;13.63;;;6.47;;
11539;SDS011;5826;54.756;9.192;2023-10-13T13:13:46;14.98;;;6.28;;
11539;SDS011;5826;54.756;9.192;2023-10-13T13:16:15;16.20;;;6.30;;
11539;SDS011;5826;54.756;9.192;2023-10-13T13:18:52;15.25;;;6.20;;
11539;SDS011;5826;54.756;9.192;2023-10-13T13:21:19;11.60;;;6.00;;
11539;SDS011;5826;54.756;9.192;2023-10-13T13:23:48;13.82;;;6.00;;
11539;SDS011;5826;54.756;9.192;2023-10-13T13:26:14;18.25;;;6.22;;
11539;SDS011;5826;54.756;9.192;2023-10-13T13:28:46;20.58;;;6.82;;
11539;SDS011;5826;54.756;9.192;2023-10-13T13:31:15;15.23;;;5.88;;
11539;SDS011;5826;54.756;9.192;2023-10-13T13:33:41;12.38;;;5.35;;
11539;SDS011;5826;54.756;9.192;2023-10-13T13:36:10;12.80;;;5.50;;
11539;SDS011;5826;54.756;9.192;2023-10-13T13:38:40;11.77;;;5.53;;
11539;SDS011;5826;54.756;9.192;2023-10-13T13:41:14;12.48;;;5.95;;
11539;SDS011;5826;54.756;9.192;2023-10-13T13:43:46;18.00;;;8.27;;
11539;SDS011;5826;54.756;9.192;2023-10-13T13:46:25;11.93;;;6.25;;
11539;SDS011;5826;54.756;9.192;2023-10-13T13:48:57;11.05;;;5.70;;
11539;SDS011;5826;54.756;9.192;2023-10-13T13:51:24;18.23;;;7.65;;
11539;SDS011;5826;54.756;9.192;2023-10-13T13:53:54;14.73;;;5.50;;
11539;SDS011;5826;54.756;9.192;2023-10-13T13:56:21;15.57;;;6.13;;
11539;SDS011;5826;54.756;9.192;2023-10-13T13:58:50;17.23;;;6.63;;
11539;SDS011;5826;54.756;9.192;2023-10-13T14:01:17;13.65;;;6.43;;
11539;SDS011;5826;54.756;9.192;2023-10-13T14:03:44;15.10;;;6.10;;
11539;SDS011;5826;54.756;9.192;2023-10-13T14:06:14;12.75;;;5.72;;
11539;SDS011;5826;54.756;9.192;2023-10-13T14:08:54;16.17;;;6.85;;
11539;SDS011;5826;54.756;9.192;2023-10-13T14:11:39;20.45;;;6.00;;
11539;SDS011;5826;54.756;9.192;2023-10-13T14:14:09;17.33;;;6.10;;
11539;SDS011;5826;54.756;9.192;2023-10-13T14:16:38;18.70;;;6.75;;
11539;SDS011;5826;54.756;9.192;2023-10-13T14:19:10;16.75;;;7.07;;
11539;SDS011;5826;54.756;9.192;2023-10-13T14:21:37;16.85;;;7.70;;
11539;SDS011;5826;54.756;9.192;2023-10-13T14:24:03;17.02;;;7.55;;
11539;SDS011;5826;54.756;9.192;2023-10-13T14:26:39;19.08;;;6.97;;
11539;SDS011;5826;54.756;9.192;2023-10-13T14:29:05;22.05;;;7.57;;
11539;SDS011;5826;54.756;9.192;2023-10-13T14:31:33;12.55;;;6.32;;
11539;SDS011;5826;54.756;9.192;2023-10-13T14:34:01;18.55;;;6.95;;
11539;SDS011;5826;54.756;9.192;2023-10-13T14:36:27;21.60;;;7.65;;
11539;SDS011;5826;54.756;9.192;2023-10-13T14:38:54;23.30;;;7.55;;
11539;SDS011;5826;54.756;9.192;2023-10-13T14:41:22;20.42;;;7.47;;
11539;SDS011;5826;54.756;9.192;2023-10-13T14:43:48;20.40;;;7.57;;
11539;SDS011;5826;54.756;9.192;2023-10-13T14:46:17;19.33;;;7.00;;
11539;SDS011;5826;54.756;9.192;2023-10-13T14:48:47;19.55;;;6.82;;
11539;SDS011;5826;54.756;9.192;2023-10-13T14:51:14;22.50;;;8.32;;
11539;SDS011;5826;54.756;9.192;2023-10-13T14:53:45;16.77;;;6.80;;
11539;SDS011;5826;54.756;9.192;2023-10-13T14:56:11;16.80;;;7.03;;
11539;SDS011;5826;54.756;9.192;2023-10-13T14:58:37;15.88;;;6.78;;
11539;SDS011;5826;54.756;9.192;2023-10-13T15:01:13;17.25;;;7.07;;
11539;SDS011;5826;54.756;9.192;2023-10-13T15:03:41;14.75;;;7.00;;
11539;SDS011;5826;54.756;9.192;2023-10-13T15:06:07;26.02;;;8.00;;
11539;SDS011;5826;54.756;9.192;2023-10-13T15:08:32;17.27;;;8.13;;
11539;SDS011;5826;54.756;9.192;2023-10-13T15:11:07;23.02;;;7.63;;
11539;SDS011;5826;54.756;9.192;2023-10-13T15:13:37;20.35;;;7.93;;
11539;SDS011;5826;54.756;9.192;2023-10-13T15:16:12;21.52;;;7.60;;
11539;SDS011;5826;54.756;9.192;2023-10-13T15:18:40;13.07;;;6.97;;
11539;SDS011;5826;54.756;9.192;2023-10-13T15:21:05;18.45;;;7.40;;
11539;SDS011;5826;54.756;9.192;2023-10-13T15:23:33;18.25;;;7.32;;
11539;SDS011;5826;54.756;9.192;2023-10-13T15:26:07;17.73;;;7.00;;
11539;SDS011;5826;54.756;9.192;2023-10-13T15:28:38;14.90;;;6.88;;
11539;SDS011;5826;54.756;9.192;2023-10-13T15:31:11;19.80;;;7.57;;
11539;SDS011;5826;54.756;9.192;2023-10-13T15:33:49;16.83;;;7.80;;
11539;SDS011;5826;54.756;9.192;2023-10-13T15:36:19;14.98;;;7.18;;
11539;SDS011;5826;54.756;9.192;2023-10-13T15:38:51;15.52;;;6.97;;
11539;SDS011;5826;54.756;9.192;2023-10-13T15:41:21;21.10;;;8.20;;
11539;SDS011;5826;54.756;9.192;2023-10-13T15:43:50;18.08;;;9.30;;
11539;SDS011;5826;54.756;9.192;2023-10-13T15:46:18;21.73;;;9.63;;
11539;SDS011;5826;54.756;9.192;2023-10-13T15:48:48;22.23;;;9.30;;
11539;SDS011;5826;54.756;9.192;2023-10-13T15:51:14;18.88;;;9.05;;
11539;SDS011;5826;54.756;9.192;2023-10-13T15:53:40;21.42;;;8.25;;